Time;durP1;ratioP1;P1;durP2;ratioP2;P2;SDS_P1;SDS_P2;PMS_P1;PMS_P2;Temp;Humidity;BMP_temperature;BMP_pressure;BME280_temperature;BME280_humidity;BME280_pressure;Samples;Min_cycle;Max_cycle;Signal;HPM_P1;HPM_P2
2022/12/01 00:01:13;;;;;;;12.67;6.53;;;;;;;-145.69;100.00;52662.22;5096017;28;20205;-76
2022/12/01 00:03:40;;;;;;;12.63;6.17;;;;;;;-145.69;100.00;52733.53;5096273;28;20202;-77
2022/12/01 00:06:10;;;;;;;11.17;5.80;;;;;;;-145.69;100.00;52707.78;5095875;28;20206;-77
2022/12/01 00:08:37;;;;;;;12.90;7.03;;;;;;;-145.69;100.00;52666.19;5096024;28;20194;-77
2022/12/01 00:11:05;;;;;;;11.40;5.97;;;;;;;-145.69;100.00;52741.47;5095932;28;20206;-77
2022/12/01 00:13:32;;;;;;;11.87;6.23;;;;;;;-145.69;100.00;52709.78;5095548;28;20621;-77
2022/12/01 00:16:09;;;;;;;14.03;6.27;;;;;;;-145.69;100.00;52682.03;5095708;28;20198;-77
2022/12/01 00:18:35;;;;;;;11.10;5.90;;;;;;;-145.69;100.00;52713.72;5095331;28;20653;-77
2022/12/01 00:21:02;;;;;;;12.83;6.07;;;;;;;-145.69;100.00;52713.72;5095841;28;20206;-77
2022/12/01 00:23:28;;;;;;;12.03;6.23;;;;;;;-145.69;100.00;52721.66;5094264;28;20213;-77
2022/12/01 00:25:55;;;;;;;14.40;6.80;;;;;;;-145.69;100.00;52701.84;5095497;28;20209;-78
2022/12/01 00:28:23;;;;;;;12.23;6.20;;;;;;;-145.69;100.00;52711.75;5094978;28;20205;-77
2022/12/01 00:30:49;;;;;;;11.60;6.63;;;;;;;-145.69;100.00;52721.66;5095733;28;20194;-77
2022/12/01 00:33:16;;;;;;;14.27;6.70;;;;;;;-145.69;100.00;52711.75;5095526;28;20225;-78
2022/12/01 00:35:42;;;;;;;14.87;7.17;;;;;;;-145.69;100.00;52701.84;5095324;28;20237;-77
2022/12/01 00:38:08;;;;;;;13.73;6.80;;;;;;;-145.69;100.00;52682.03;5095469;28;20201;-77
2022/12/01 00:40:35;;;;;;;14.37;7.27;;;;;;;-145.69;100.00;52687.97;5095231;28;20553;-78
2022/12/01 00:43:01;;;;;;;14.33;7.40;;;;;;;-145.69;100.00;52697.88;5094980;28;20537;-77
2022/12/01 00:45:29;;;;;;;16.20;7.90;;;;;;;-145.69;100.00;52691.94;5094702;28;20194;-78
2022/12/01 00:47:56;;;;;;;13.77;7.07;;;;;;;-145.69;100.00;52705.81;5095189;28;20216;-77
2022/12/01 00:50:22;;;;;;;13.43;6.87;;;;;;;-145.69;100.00;52703.81;5095270;28;20198;-77
2022/12/01 00:52:49;;;;;;;17.57;8.57;;;;;;;-145.69;100.00;52751.34;5095163;28;20226;-77
2022/12/01 00:55:15;;;;;;;17.23;8.70;;;;;;;-145.69;100.00;52689.97;5094173;28;20284;-77
2022/12/01 00:57:42;;;;;;;16.50;8.17;;;;;;;-145.69;100.00;52693.94;5094713;28;20198;-77
2022/12/01 01:00:11;;;;;;;18.77;8.83;;;;;;;-145.69;100.00;52745.41;5094758;28;20205;-77
2022/12/01 01:02:40;;;;;;;17.77;8.83;;;;;;;-145.69;100.00;52729.56;5095082;28;20198;-77
2022/12/01 01:05:07;;;;;;;17.77;8.83;;;;;;;-145.69;100.00;52727.59;5074241;28;20203;-77
2022/12/01 01:07:34;;;;;;;22.50;9.23;;;;;;;-145.69;100.00;52695.91;5074841;28;20207;-77
2022/12/01 01:10:00;;;;;;;18.53;8.77;;;;;;;-145.69;100.00;52711.75;5090227;28;20191;-77
2022/12/01 01:12:27;;;;;;;22.53;9.70;;;;;;;-145.69;100.00;52686.00;5091389;28;20217;-77
2022/12/01 01:14:54;;;;;;;19.03;9.50;;;;;;;-145.69;100.00;52709.78;5094335;28;20752;-78
2022/12/01 01:17:21;;;;;;;18.20;8.93;;;;;;;-145.69;100.00;52741.47;5094750;28;20565;-78
2022/12/01 01:19:48;;;;;;;20.47;9.37;;;;;;;-145.69;100.00;52713.72;5094597;28;20648;-77
2022/12/01 01:22:15;;;;;;;18.80;9.50;;;;;;;-145.69;100.00;52687.97;5094696;28;20216;-77
2022/12/01 01:24:41;;;;;;;20.57;10.63;;;;;;;-145.69;100.00;52674.13;5094500;28;20194;-78
2022/12/01 01:27:08;;;;;;;25.33;10.43;;;;;;;-145.69;100.00;52682.03;5094643;28;20202;-78
2022/12/01 01:29:35;;;;;;;22.40;11.47;;;;;;;-145.69;100.00;52721.66;5094008;28;20194;-77
2022/12/01 01:32:03;;;;;;;24.57;11.43;;;;;;;-145.69;100.00;52691.94;5094415;28;20232;-77
2022/12/01 01:34:29;;;;;;;20.90;10.73;;;;;;;-145.69;100.00;52721.66;5093848;28;20237;-77
2022/12/01 01:36:57;;;;;;;24.73;11.33;;;;;;;-145.69;100.00;52705.81;5094352;28;20664;-78
2022/12/01 01:39:24;;;;;;;26.90;11.47;;;;;;;-145.69;100.00;52701.84;5093891;28;20201;-77
2022/12/01 01:41:50;;;;;;;26.43;11.97;;;;;;;-145.69;100.00;52697.88;5094123;28;20194;-77
2022/12/01 01:44:49;;;;;;;23.27;11.50;;;;;;;-145.69;100.00;52695.91;5094165;28;20675;-78
2022/12/01 01:47:19;;;;;;;25.13;12.57;;;;;;;-145.69;100.00;52703.81;5094178;28;20201;-77
2022/12/01 01:49:46;;;;;;;28.20;12.37;;;;;;;-145.69;100.00;52709.78;5093977;28;20305;-77
2022/12/01 01:52:15;;;;;;;25.90;12.13;;;;;;;-145.69;100.00;52709.78;5094039;28;20339;-77
2022/12/01 01:54:47;;;;;;;31.33;14.25;;;;;;;-145.69;100.00;52686.00;5094019;28;20784;-77
2022/12/01 01:57:17;;;;;;;28.53;12.53;;;;;;;-145.69;100.00;52697.88;5093832;28;20194;-77
2022/12/01 01:59:47;;;;;;;29.87;12.93;;;;;;;-145.69;100.00;52725.63;5094099;28;20202;-77
2022/12/01 02:02:13;;;;;;;31.80;13.60;;;;;;;-145.69;100.00;52723.63;5093767;28;20194;-77
2022/12/01 02:04:45;;;;;;;26.17;12.97;;;;;;;-145.69;100.00;52693.94;5094122;28;20194;-77
2022/12/01 02:07:13;;;;;;;29.67;13.90;;;;;;;-145.69;100.00;52699.88;5093098;28;20645;-76
2022/12/01 02:09:41;;;;;;;25.37;12.80;;;;;;;-145.69;100.00;52743.44;5094020;28;20202;-77
2022/12/01 02:12:19;;;;;;;29.87;13.20;;;;;;;-145.69;100.00;52701.84;5093333;28;20696;-77
2022/12/01 02:15:03;;;;;;;31.27;13.33;;;;;;;-145.69;100.00;52729.56;5093534;28;20573;-77
2022/12/01 02:17:36;;;;;;;29.20;13.93;;;;;;;-145.69;100.00;52715.72;5093680;28;20248;-77
2022/12/01 02:20:25;;;;;;;29.53;12.70;;;;;;;-145.69;100.00;52693.94;5093735;28;20292;-77
2022/12/01 02:23:18;;;;;;;33.20;13.63;;;;;;;-145.69;100.00;52670.16;5093495;28;20198;-77
2022/12/01 02:25:50;;;;;;;31.17;12.77;;;;;;;-145.69;100.00;52741.47;5093635;28;20206;-77
2022/12/01 02:28:39;;;;;;;30.57;13.00;;;;;;;-145.69;100.00;52709.78;5093051;28;20194;-77
2022/12/01 02:31:12;;;;;;;30.80;12.87;;;;;;;-145.69;100.00;52701.84;5093514;28;20652;-77
2022/12/01 02:33:42;;;;;;;28.97;12.33;;;;;;;-145.69;100.00;52745.41;5092969;28;20249;-77
2022/12/01 02:36:17;;;;;;;28.60;13.43;;;;;;;-145.69;100.00;52715.72;5093651;28;20205;-77
2022/12/01 02:38:51;;;;;;;30.57;12.27;;;;;;;-145.69;100.00;52713.72;5092786;28;20203;-77
2022/12/01 02:41:23;;;;;;;30.13;13.30;;;;;;;-145.69;100.00;52727.59;5093104;28;20666;-77
2022/12/01 02:43:56;;;;;;;30.40;13.67;;;;;;;-145.69;100.00;52733.53;5092893;28;20229;-77
2022/12/01 02:46:30;;;;;;;26.97;12.97;;;;;;;-145.69;100.00;52725.63;5092606;28;20849;-77
2022/12/01 02:48:59;;;;;;;33.90;14.10;;;;;;;-145.69;100.00;52703.81;5093276;28;20202;-77
2022/12/01 02:51:29;;;;;;;29.13;12.70;;;;;;;-145.69;100.00;52705.81;5093179;28;20206;-78
2022/12/01 02:53:58;;;;;;;32.20;13.60;;;;;;;-145.69;100.00;52687.97;5093129;28;20243;-77
2022/12/01 02:56:25;;;;;;;32.27;14.07;;;;;;;-145.69;100.00;52759.28;5092905;28;20198;-77
2022/12/01 02:58:51;;;;;;;34.30;14.20;;;;;;;-145.69;100.00;52735.50;5092760;28;20202;-77
2022/12/01 03:01:32;;;;;;;30.60;13.37;;;;;;;-145.69;100.00;52723.63;5093279;28;20213;-77
2022/12/01 03:04:08;;;;;;;31.17;14.33;;;;;;;-145.69;100.00;52705.81;5092874;28;20719;-77
2022/12/01 03:06:45;;;;;;;34.07;13.67;;;;;;;-145.69;100.00;52721.66;5092947;28;20201;-77
2022/12/01 03:09:20;;;;;;;33.00;13.30;;;;;;;-145.69;100.00;52731.56;5088320;28;20652;-77
2022/12/01 03:12:03;;;;;;;34.37;14.17;;;;;;;-145.69;100.00;52713.72;5092661;28;20202;-77
2022/12/01 03:14:39;;;;;;;32.70;14.20;;;;;;;-145.69;100.00;52682.03;5092885;28;20205;-77
2022/12/01 03:17:10;;;;;;;30.37;13.77;;;;;;;-145.69;100.00;52739.47;5092756;28;20197;-77
2022/12/01 03:19:41;;;;;;;35.33;14.43;;;;;;;-145.69;100.00;52693.94;5093072;28;20213;-77
2022/12/01 03:22:12;;;;;;;35.63;16.00;;;;;;;-145.69;100.00;52686.00;5077639;28;20449;-77
2022/12/01 03:24:42;;;;;;;34.67;14.93;;;;;;;-145.69;100.00;52703.81;5092809;28;20451;-77
2022/12/01 03:27:12;;;;;;;33.90;14.90;;;;;;;-145.69;100.00;52709.78;5092896;28;20297;-77
2022/12/01 03:29:42;;;;;;;31.10;13.37;;;;;;;-145.69;100.00;52721.66;5092633;28;20217;-76
2022/12/01 03:32:14;;;;;;;31.00;13.53;;;;;;;-145.69;100.00;52684.03;5092625;28;20197;-76
2022/12/01 03:34:46;;;;;;;29.60;12.90;;;;;;;-145.69;100.00;52741.47;5092320;28;20229;-77
2022/12/01 03:37:18;;;;;;;32.20;13.97;;;;;;;-145.69;100.00;52717.69;5092535;28;20197;-77
2022/12/01 03:39:47;;;;;;;36.33;14.70;;;;;;;-145.69;100.00;52713.72;5092456;28;20236;-77
2022/12/01 03:42:18;;;;;;;34.30;13.90;;;;;;;-145.69;100.00;52684.03;5092559;28;20198;-77
2022/12/01 03:44:49;;;;;;;32.47;14.03;;;;;;;-145.69;100.00;52719.66;5092743;28;20218;-77
2022/12/01 03:47:20;;;;;;;32.20;13.80;;;;;;;-145.69;100.00;52709.78;5092619;28;20217;-77
2022/12/01 03:49:49;;;;;;;37.10;14.27;;;;;;;-145.69;100.00;52749.38;5092522;28;20668;-78
2022/12/01 03:52:27;;;;;;;28.97;13.80;;;;;;;-145.69;100.00;52725.63;5092424;28;20583;-78
2022/12/01 03:55:06;;;;;;;32.97;12.93;;;;;;;-145.69;100.00;52721.66;5092254;28;20198;-77
2022/12/01 03:57:40;;;;;;;36.87;13.60;;;;;;;-145.69;100.00;52725.63;5094566;28;20205;-77
2022/12/01 04:00:10;;;;;;;36.00;14.97;;;;;;;-145.69;100.00;52701.84;5096392;28;20206;-77
2022/12/01 04:02:38;;;;;;;33.70;13.40;;;;;;;-145.69;100.00;52729.56;5096172;28;20212;-77
2022/12/01 04:05:05;;;;;;;35.00;16.60;;;;;;;-145.69;100.00;52717.69;5095159;28;20437;-77
2022/12/01 04:07:33;;;;;;;30.20;13.80;;;;;;;-145.69;100.00;52721.66;5095757;28;20217;-77
2022/12/01 04:10:00;;;;;;;37.17;15.70;;;;;;;-145.69;100.00;52697.88;5095773;28;20560;-77
2022/12/01 04:12:28;;;;;;;35.63;14.70;;;;;;;-145.69;100.00;52691.94;5096211;28;20202;-77
2022/12/01 04:14:55;;;;;;;28.83;13.37;;;;;;;-145.69;100.00;52733.53;5096002;28;20198;-77
2022/12/01 04:17:21;;;;;;;29.97;12.83;;;;;;;-145.69;100.00;52739.47;5095905;28;20208;-78
2022/12/01 04:19:49;;;;;;;33.63;13.13;;;;;;;-145.69;100.00;52701.84;5095980;28;20209;-76
2022/12/01 04:22:16;;;;;;;32.70;13.57;;;;;;;-145.69;100.00;52725.63;5096507;28;20202;-76
2022/12/01 04:24:45;;;;;;;33.73;13.93;;;;;;;-145.69;100.00;52725.63;5096036;28;20202;-78
2022/12/01 04:27:11;;;;;;;34.17;13.93;;;;;;;-145.69;100.00;52689.97;5095620;28;20195;-77
2022/12/01 04:29:38;;;;;;;40.43;15.73;;;;;;;-145.69;100.00;52711.75;5095687;28;20533;-77
2022/12/01 04:32:05;;;;;;;36.10;14.23;;;;;;;-145.69;100.00;52711.75;5095504;28;20225;-77
2022/12/01 04:34:31;;;;;;;30.70;14.33;;;;;;;-145.69;100.00;52743.44;5095358;28;20243;-77
2022/12/01 04:36:59;;;;;;;36.97;14.60;;;;;;;-145.69;100.00;52719.66;5095665;28;20200;-76
2022/12/01 04:39:26;;;;;;;34.37;14.70;;;;;;;-145.69;100.00;52701.84;5095646;28;20194;-77
2022/12/01 04:41:52;;;;;;;34.83;14.83;;;;;;;-145.69;100.00;52745.41;5095471;28;20205;-76
2022/12/01 04:44:19;;;;;;;37.97;14.13;;;;;;;-145.69;100.00;52737.50;5095556;28;20209;-76
2022/12/01 04:46:46;;;;;;;37.93;14.53;;;;;;;-145.69;100.00;52727.59;5093970;28;20197;-76
2022/12/01 04:49:12;;;;;;;37.13;14.30;;;;;;;-145.69;100.00;52721.66;5094799;28;20186;-77
2022/12/01 04:51:38;;;;;;;33.60;14.30;;;;;;;-145.69;100.00;52709.78;5094902;28;20213;-77
2022/12/01 04:54:06;;;;;;;35.40;14.63;;;;;;;-145.69;100.00;52699.88;5095230;28;20233;-77
2022/12/01 04:56:33;;;;;;;37.40;14.87;;;;;;;-145.69;100.00;52684.03;5095063;28;20284;-76
2022/12/01 04:59:00;;;;;;;34.43;14.03;;;;;;;-145.69;100.00;52753.34;5095347;28;20198;-76
2022/12/01 05:01:26;;;;;;;41.40;14.90;;;;;;;-145.69;100.00;52715.72;5094983;28;20197;-77
2022/12/01 05:03:53;;;;;;;38.37;14.93;;;;;;;-145.69;100.00;52699.88;5095158;28;20206;-77
2022/12/01 05:06:22;;;;;;;35.67;14.27;;;;;;;-145.69;100.00;52737.50;5094863;28;20198;-77
2022/12/01 05:08:49;;;;;;;36.20;14.13;;;;;;;-145.69;100.00;52729.56;5093600;28;20194;-77
2022/12/01 05:11:17;;;;;;;34.27;14.10;;;;;;;-145.69;100.00;52703.81;5094930;28;20190;-77
2022/12/01 05:13:46;;;;;;;33.50;14.00;;;;;;;-145.69;100.00;52711.75;5094748;28;20226;-77
2022/12/01 05:16:15;;;;;;;34.57;14.10;;;;;;;-145.69;100.00;52709.78;5094662;28;20209;-77
2022/12/01 05:18:42;;;;;;;39.83;14.40;;;;;;;-145.69;100.00;52693.94;5094608;28;20195;-77
2022/12/01 05:21:09;;;;;;;39.00;14.77;;;;;;;-145.69;100.00;52753.34;5081285;28;20199;-77
2022/12/01 05:23:37;;;;;;;34.30;13.93;;;;;;;-145.69;100.00;52719.66;5074417;28;20205;-77
2022/12/01 05:26:06;;;;;;;34.20;14.47;;;;;;;-145.69;100.00;52721.66;5074295;28;20199;-77
2022/12/01 05:28:34;;;;;;;34.33;12.40;;;;;;;-145.69;100.00;52705.81;5074136;28;20214;-77
2022/12/01 05:31:01;;;;;;;34.73;13.47;;;;;;;-145.69;100.00;52721.66;5074194;28;20198;-77
2022/12/01 05:33:28;;;;;;;33.75;15.27;;;;;;;-145.69;100.00;52701.84;5087127;28;20459;-77
2022/12/01 05:35:55;;;;;;;30.27;12.50;;;;;;;-145.69;100.00;52733.53;5094503;28;20206;-78
2022/12/01 05:38:22;;;;;;;34.07;13.43;;;;;;;-145.69;100.00;52729.56;5093953;28;20222;-77
2022/12/01 05:40:53;;;;;;;33.10;13.70;;;;;;;-145.69;100.00;52753.34;5094325;28;20233;-77
2022/12/01 05:43:20;;;;;;;33.03;12.23;;;;;;;-145.69;100.00;52721.66;5093977;28;20206;-77
2022/12/01 05:45:49;;;;;;;29.33;11.67;;;;;;;-145.69;100.00;52709.78;5093785;28;20202;-77
2022/12/01 05:48:16;;;;;;;33.60;13.20;;;;;;;-145.69;100.00;52701.84;5093703;28;20198;-76
2022/12/01 05:50:43;;;;;;;33.63;12.67;;;;;;;-145.69;100.00;52703.81;5094049;28;20206;-76
2022/12/01 05:53:11;;;;;;;32.50;12.50;;;;;;;-145.69;100.00;52711.75;5093905;28;20226;-76
2022/12/01 05:55:37;;;;;;;28.13;11.80;;;;;;;-145.69;100.00;52737.50;5093784;28;20211;-77
2022/12/01 05:58:04;;;;;;;27.30;10.93;;;;;;;-145.69;100.00;52733.53;5093845;28;20565;-77
2022/12/01 06:00:30;;;;;;;30.90;11.03;;;;;;;-145.69;100.00;52713.72;5093960;28;20210;-76
2022/12/01 06:02:58;;;;;;;27.30;11.00;;;;;;;-145.69;100.00;52725.63;5093452;28;20200;-77
2022/12/01 06:05:24;;;;;;;30.17;11.53;;;;;;;-145.69;100.00;52701.84;5093958;28;20198;-76
2022/12/01 06:07:51;;;;;;;29.67;11.73;;;;;;;-145.69;100.00;52739.47;5093371;28;20291;-76
2022/12/01 06:10:18;;;;;;;28.23;11.37;;;;;;;-145.69;100.00;52697.88;5093500;28;20678;-77
2022/12/01 06:12:44;;;;;;;29.27;11.43;;;;;;;-145.69;100.00;52691.94;5093678;28;20202;-77
2022/12/01 06:15:12;;;;;;;39.17;14.43;;;;;;;-145.69;100.00;52733.53;5093673;28;20237;-77
2022/12/01 06:17:38;;;;;;;29.30;11.63;;;;;;;-145.69;100.00;52703.81;5092961;28;20190;-77
2022/12/01 06:20:08;;;;;;;35.97;12.27;;;;;;;-145.69;100.00;52693.94;5093681;28;20198;-77
2022/12/01 06:22:34;;;;;;;31.70;12.50;;;;;;;-145.69;100.00;52725.63;5093314;28;20205;-76
2022/12/01 06:25:01;;;;;;;34.93;13.90;;;;;;;-145.69;100.00;52731.56;5093612;28;20208;-77
2022/12/01 06:27:27;;;;;;;307.87;77.70;;;;;;;-145.69;100.00;52709.78;5093438;28;20198;-77
2022/12/01 06:29:54;;;;;;;60.37;19.23;;;;;;;-145.69;100.00;52737.50;5093226;28;20202;-76
2022/12/01 06:32:20;;;;;;;28.40;13.33;;;;;;;-145.69;100.00;52739.47;5093249;28;20653;-76
2022/12/01 06:34:47;;;;;;;36.70;18.03;;;;;;;-145.69;100.00;52731.56;5093141;28;20229;-76
2022/12/01 06:37:15;;;;;;;31.97;15.90;;;;;;;-145.69;100.00;52697.88;5092945;28;20280;-77
2022/12/01 06:39:42;;;;;;;27.07;12.00;;;;;;;-145.69;100.00;52703.81;5093511;28;20657;-77
2022/12/01 06:42:09;;;;;;;30.60;11.43;;;;;;;-145.69;100.00;52697.88;5093226;28;20198;-77
2022/12/01 06:44:35;;;;;;;19.20;9.20;;;;;;;-145.69;100.00;52701.84;5093321;28;20204;-76
2022/12/01 06:47:02;;;;;;;22.03;9.73;;;;;;;-145.69;100.00;52721.66;5093002;28;20661;-77
2022/12/01 06:49:29;;;;;;;22.27;10.40;;;;;;;-145.69;100.00;52743.44;5092868;28;20194;-77
2022/12/01 06:51:55;;;;;;;21.40;9.73;;;;;;;-145.69;100.00;52725.63;5092766;28;20657;-77
2022/12/01 06:54:23;;;;;;;21.60;9.83;;;;;;;-145.69;100.00;52715.72;5093155;28;20225;-77
2022/12/01 06:56:50;;;;;;;20.37;9.47;;;;;;;-145.69;100.00;52715.72;5093091;28;20202;-77
2022/12/01 06:59:16;;;;;;;21.85;11.75;;;;;;;-145.69;100.00;52699.88;5092260;28;20449;-77
2022/12/01 07:01:43;;;;;;;22.60;10.57;;;;;;;-145.69;100.00;52753.34;5093245;28;20202;-77
2022/12/01 07:04:09;;;;;;;24.00;10.73;;;;;;;-145.69;100.00;52711.75;5092486;28;20201;-76
2022/12/01 07:06:36;;;;;;;24.70;10.80;;;;;;;-145.69;100.00;52695.91;5092845;28;20653;-76
2022/12/01 07:09:02;;;;;;;22.30;10.43;;;;;;;-145.69;100.00;52729.56;5092478;28;20190;-76
2022/12/01 07:11:31;;;;;;;25.43;10.83;;;;;;;-145.69;100.00;52693.94;5092951;28;20198;-77
2022/12/01 07:13:58;;;;;;;21.97;10.03;;;;;;;-145.69;100.00;52715.72;5093051;28;20225;-77
2022/12/01 07:16:25;;;;;;;21.87;9.57;;;;;;;-145.69;100.00;52701.84;5092029;28;20194;-77
2022/12/01 07:18:51;;;;;;;20.73;10.17;;;;;;;-145.69;100.00;52741.47;5092564;28;20198;-77
2022/12/01 07:21:18;;;;;;;24.27;10.40;;;;;;;-145.69;100.00;52733.53;5092806;28;20198;-76
2022/12/01 07:23:44;;;;;;;19.33;9.70;;;;;;;-145.69;100.00;52709.78;5093024;28;20208;-77
2022/12/01 07:26:13;;;;;;;20.97;10.27;;;;;;;-145.69;100.00;52721.66;5092213;28;20195;-76
2022/12/01 07:28:41;;;;;;;25.53;11.13;;;;;;;-145.69;100.00;52684.03;5092891;28;20557;-77
2022/12/01 07:31:09;;;;;;;20.43;9.90;;;;;;;-145.69;100.00;52721.66;5081781;28;20689;-77
2022/12/01 07:33:36;;;;;;;26.37;10.97;;;;;;;-145.69;100.00;52723.63;5082699;28;20577;-76
2022/12/01 07:36:04;;;;;;;23.67;10.33;;;;;;;-145.69;100.00;52745.41;5097003;28;20205;-77
2022/12/01 07:38:31;;;;;;;23.20;10.40;;;;;;;-145.69;100.00;52693.94;5096364;28;20657;-77
2022/12/01 07:41:02;;;;;;;27.27;13.05;;;;;;;-145.69;100.00;52717.69;5096211;28;20424;-77
2022/12/01 07:43:29;;;;;;;26.13;10.93;;;;;;;-145.69;100.00;52705.81;5096544;28;20198;-77
2022/12/01 07:45:57;;;;;;;19.10;10.03;;;;;;;-145.69;100.00;52725.63;5096200;28;20676;-77
2022/12/01 07:48:23;;;;;;;24.67;11.17;;;;;;;-145.69;100.00;52725.63;5096484;28;20194;-76
2022/12/01 07:50:50;;;;;;;23.53;10.50;;;;;;;-145.69;100.00;52701.84;5096665;28;20211;-77
2022/12/01 07:53:16;;;;;;;23.20;10.00;;;;;;;-145.69;100.00;52741.47;5096392;28;20202;-77
2022/12/01 07:55:48;;;;;;;25.80;10.97;;;;;;;-145.69;100.00;52707.78;5096481;28;20198;-77
2022/12/01 07:58:14;;;;;;;24.47;10.67;;;;;;;-145.69;100.00;52697.88;5096400;28;20278;-76
2022/12/01 08:00:41;;;;;;;23.47;10.80;;;;;;;-145.69;100.00;52709.78;5095915;28;20194;-77
2022/12/01 08:03:08;;;;;;;24.50;10.33;;;;;;;-145.69;100.00;52717.69;5096246;28;20206;-77
2022/12/01 08:05:35;;;;;;;22.33;10.50;;;;;;;-145.69;100.00;52717.69;5096492;28;20210;-77
2022/12/01 08:08:03;;;;;;;20.23;8.63;;;;;;;-145.69;100.00;52709.78;5095716;28;20186;-77
2022/12/01 08:10:29;;;;;;;22.83;9.53;;;;;;;-145.69;100.00;52709.78;5096251;28;20213;-77
2022/12/01 08:12:55;;;;;;;54.63;23.90;;;;;;;-145.69;100.00;52707.78;5095995;28;20202;-76
2022/12/01 08:15:22;;;;;;;17.50;7.77;;;;;;;-145.69;100.00;52697.88;5095950;28;20237;-77
2022/12/01 08:17:48;;;;;;;22.67;9.83;;;;;;;-145.69;100.00;52717.69;5095579;28;20198;-77
2022/12/01 08:20:16;;;;;;;22.60;10.93;;;;;;;-145.69;100.00;52684.03;5096092;28;20205;-76
2022/12/01 08:22:43;;;;;;;23.33;9.90;;;;;;;-145.69;100.00;52691.94;5095753;28;20672;-77
2022/12/01 08:25:09;;;;;;;19.37;9.23;;;;;;;-145.69;100.00;52709.78;5095833;28;20209;-67
2022/12/01 08:27:36;;;;;;;20.03;9.33;;;;;;;-145.69;100.00;52672.13;5095716;28;20198;-76
2022/12/01 08:30:02;;;;;;;16.77;8.10;;;;;;;-145.69;100.00;52689.97;5095764;28;20202;-76
2022/12/01 08:32:29;;;;;;;16.87;7.50;;;;;;;-145.69;100.00;52697.88;5095358;28;20194;-77
2022/12/01 08:34:56;;;;;;;14.47;7.20;;;;;;;-145.69;100.00;52717.69;5095577;28;20256;-76
2022/12/01 08:37:23;;;;;;;19.77;9.03;;;;;;;-145.69;100.00;52695.91;5095615;28;20198;-76
2022/12/01 08:39:50;;;;;;;22.77;9.57;;;;;;;-145.69;100.00;52717.69;5094245;28;20682;-77
2022/12/01 08:42:16;;;;;;;16.57;7.63;;;;;;;-145.69;100.00;52719.66;5095330;28;20202;-76
2022/12/01 08:44:43;;;;;;;18.43;8.60;;;;;;;-145.69;100.00;52709.78;5094144;28;20676;-76
2022/12/01 08:47:09;;;;;;;18.80;7.73;;;;;;;-145.69;100.00;52701.84;5095323;28;20191;-76
2022/12/01 08:49:36;;;;;;;21.37;8.00;;;;;;;-145.69;100.00;52713.72;5095377;28;20284;-76
2022/12/01 08:52:02;;;;;;;17.10;6.90;;;;;;;-145.69;100.00;52727.59;5095369;28;20202;-76
2022/12/01 08:54:30;;;;;;;16.23;7.70;;;;;;;-145.69;100.00;52725.63;5095264;28;20222;-76
2022/12/01 08:56:57;;;;;;;16.63;6.50;;;;;;;-145.69;100.00;52739.47;5095095;28;20198;-76
2022/12/01 08:59:23;;;;;;;16.93;7.83;;;;;;;-145.69;100.00;52717.69;5095275;28;20657;-77
2022/12/01 09:01:53;;;;;;;18.97;7.47;;;;;;;-145.69;100.00;52705.81;5095048;28;20703;-77
2022/12/01 09:04:21;;;;;;;18.70;7.77;;;;;;;-145.69;100.00;52733.53;5095208;28;20202;-76
2022/12/01 09:06:50;;;;;;;14.47;7.03;;;;;;;-145.69;100.00;52717.69;5095053;28;20569;-77
2022/12/01 09:09:18;;;;;;;18.00;8.00;;;;;;;-145.69;100.00;52693.94;5094301;28;20198;-77
2022/12/01 09:11:47;;;;;;;16.53;7.23;;;;;;;-145.69;100.00;52705.81;5095261;28;20202;-77
2022/12/01 09:14:15;;;;;;;19.80;8.10;;;;;;;-145.69;100.00;52701.84;5094407;28;20264;-77
2022/12/01 09:16:45;;;;;;;18.93;7.83;;;;;;;-145.69;100.00;52737.50;5094834;28;20720;-78
2022/12/01 09:19:12;;;;;;;28.37;11.00;;;;;;;-145.69;100.00;52729.56;5094562;28;20198;-77
2022/12/01 09:21:39;;;;;;;22.50;9.37;;;;;;;-145.69;100.00;52711.75;5094711;28;20206;-76
2022/12/01 09:24:07;;;;;;;19.57;7.70;;;;;;;-145.69;100.00;52699.88;5094873;28;20210;-77
2022/12/01 09:26:34;;;;;;;18.10;7.23;;;;;;;-145.69;100.00;52709.78;5086863;28;20198;-76
2022/12/01 09:29:03;;;;;;;28.10;10.70;;;;;;;-145.69;100.00;52737.50;5090320;28;20201;-77
2022/12/01 09:31:32;;;;;;;20.00;8.70;;;;;;;-145.69;100.00;52676.09;5094666;28;20230;-76
2022/12/01 09:34:00;;;;;;;20.83;9.40;;;;;;;-145.69;100.00;52713.72;5094113;28;20230;-76
2022/12/01 09:36:30;;;;;;;22.33;9.23;;;;;;;-145.69;100.00;52693.94;5094692;28;20289;-76
2022/12/01 09:38:57;;;;;;;26.47;10.83;;;;;;;-145.69;100.00;52701.84;5094335;28;20621;-75
2022/12/01 09:41:28;;;;;;;29.23;12.13;;;;;;;-145.69;100.00;52701.84;5093993;28;20197;-76
2022/12/01 09:44:00;;;;;;;38.17;13.77;;;;;;;-145.69;100.00;52723.63;5094341;28;20207;-76
2022/12/01 09:46:33;;;;;;;31.87;12.87;;;;;;;-145.69;100.00;52703.81;5094104;28;20209;-76
2022/12/01 09:49:02;;;;;;;31.20;13.63;;;;;;;-145.69;100.00;52686.00;5094194;28;20213;-76
2022/12/01 09:51:33;;;;;;;38.07;14.37;;;;;;;-145.69;100.00;52678.09;5094503;28;20202;-76
2022/12/01 09:54:01;;;;;;;27.33;11.70;;;;;;;-145.69;100.00;52753.34;5094135;28;20206;-76
2022/12/01 09:56:30;;;;;;;35.13;14.07;;;;;;;-145.69;100.00;52695.91;5093678;28;20197;-77
2022/12/01 09:58:59;;;;;;;34.90;13.03;;;;;;;-145.69;100.00;52701.84;5073843;28;20195;-76
2022/12/01 10:01:33;;;;;;;34.40;13.37;;;;;;;-145.69;100.00;52691.94;5073644;28;20198;-76
2022/12/01 10:04:05;;;;;;;33.00;12.90;;;;;;;-145.69;100.00;52693.94;5073798;28;20225;-76
2022/12/01 10:06:38;;;;;;;28.73;12.60;;;;;;;-145.69;100.00;52721.66;5073837;28;20199;-76
2022/12/01 10:09:16;;;;;;;31.57;13.00;;;;;;;-145.69;100.00;52691.94;5086681;28;20200;-76
2022/12/01 10:11:45;;;;;;;36.27;14.30;;;;;;;-145.69;100.00;52707.78;5093780;28;20202;-76
2022/12/01 10:14:15;;;;;;;34.87;13.93;;;;;;;-145.69;100.00;52715.72;5093489;28;20198;-76
2022/12/01 10:16:50;;;;;;;37.37;14.83;;;;;;;-145.69;100.00;52725.63;5093745;28;20201;-76
2022/12/01 10:19:23;;;;;;;35.20;15.30;;;;;;;-145.69;100.00;52682.03;5093682;28;20202;-76
2022/12/01 10:22:05;;;;;;;42.97;14.57;;;;;;;-145.69;100.00;52709.78;5093617;28;20202;-76
2022/12/01 10:24:44;;;;;;;35.50;13.93;;;;;;;-145.69;100.00;52711.75;5093726;28;20255;-76
2022/12/01 10:27:21;;;;;;;34.47;13.43;;;;;;;-145.69;100.00;52695.91;5093818;28;20205;-76
2022/12/01 10:29:49;;;;;;;40.00;16.00;;;;;;;-145.69;100.00;52709.78;5093537;28;20606;-76
2022/12/01 10:32:20;;;;;;;42.63;16.73;;;;;;;-145.69;100.00;52682.03;5093495;28;20198;-76
2022/12/01 10:34:48;;;;;;;48.20;16.83;;;;;;;-145.69;100.00;52715.72;5093028;28;20287;-76
2022/12/01 10:37:18;;;;;;;36.30;15.13;;;;;;;-145.69;100.00;52678.09;5093516;28;20209;-76
2022/12/01 10:39:47;;;;;;;40.37;15.17;;;;;;;-145.69;100.00;52713.72;5093078;28;20202;-76
2022/12/01 10:42:17;;;;;;;43.57;16.40;;;;;;;-145.69;100.00;52733.53;5093284;28;20206;-76
2022/12/01 10:44:44;;;;;;;40.87;15.47;;;;;;;-145.69;100.00;52729.56;5093222;28;20190;-76
2022/12/01 10:47:19;;;;;;;39.13;15.57;;;;;;;-145.69;100.00;52705.81;5093166;28;20233;-77
2022/12/01 10:49:46;;;;;;;43.70;15.50;;;;;;;-145.69;100.00;52735.50;5093459;28;20201;-76
2022/12/01 10:52:31;;;;;;;34.70;14.63;;;;;;;-145.69;100.00;52701.84;5093294;28;20194;-76
2022/12/01 10:54:58;;;;;;;34.67;14.33;;;;;;;-145.69;100.00;52731.56;5093154;28;20225;-76
2022/12/01 10:57:27;;;;;;;36.23;14.27;;;;;;;-145.69;100.00;52721.66;5092735;28;20545;-76
2022/12/01 10:59:57;;;;;;;36.93;13.63;;;;;;;-145.69;100.00;52753.34;5092972;28;20208;-76
2022/12/01 11:02:27;;;;;;;36.63;13.00;;;;;;;-145.69;100.00;52713.72;5093338;28;20197;-76
2022/12/01 11:04:57;;;;;;;32.47;12.60;;;;;;;-145.69;100.00;52747.41;5093133;28;20205;-76